createdAt,value
2019-01-30T00:01:27.895Z,97128.20
2019-01-30T00:03:56.813Z,97130.38
2019-01-30T00:06:25.373Z,97130.49
2019-01-30T00:08:54.083Z,97121.39
2019-01-30T00:11:25.096Z,97110.73
2019-01-30T00:13:54.371Z,97101.55
2019-01-30T00:16:22.868Z,97100.64
2019-01-30T00:18:51.665Z,97096.85
2019-01-30T00:21:20.489Z,97094.94
2019-01-30T00:23:49.297Z,97088.10
2019-01-30T00:26:18.304Z,97087.98
2019-01-30T00:28:46.824Z,97080.20
2019-01-30T00:31:15.789Z,97076.66
2019-01-30T00:33:44.593Z,97072.77
2019-01-30T00:36:13.150Z,97064.30
2019-01-30T00:38:43.488Z,97053.25
2019-01-30T00:41:12.157Z,97048.66
2019-01-30T00:43:43.530Z,97040.45
2019-01-30T00:46:14.167Z,97035.13
2019-01-30T00:48:42.622Z,97028.42
2019-01-30T00:51:11.302Z,97021.92
2019-01-30T00:53:40.102Z,97025.75
2019-01-30T00:56:11.979Z,97019.83
2019-01-30T00:58:40.841Z,97015.23
2019-01-30T01:01:09.669Z,97010.27
2019-01-30T01:03:39.788Z,96999.56
2019-01-30T01:06:08.994Z,96997.28
2019-01-30T01:08:37.942Z,96995.52
2019-01-30T01:11:06.515Z,96995.62
2019-01-30T01:13:35.454Z,96994.45
2019-01-30T01:16:04.163Z,96987.70
2019-01-30T01:18:32.518Z,96994.70
2019-01-30T01:21:02.636Z,96984.48
2019-01-30T01:23:31.771Z,96991.14
2019-01-30T01:26:00.463Z,96983.57
2019-01-30T01:28:28.949Z,96975.53
2019-01-30T01:30:57.416Z,96969.84
2019-01-30T01:33:27.753Z,96965.69
2019-01-30T01:35:56.282Z,96966.88
2019-01-30T01:38:24.939Z,96961.63
2019-01-30T01:40:53.579Z,96956.47
2019-01-30T01:43:22.179Z,96960.98
2019-01-30T01:45:50.722Z,96954.53
2019-01-30T01:48:19.154Z,96948.17
2019-01-30T01:50:48.079Z,96947.09
2019-01-30T01:53:16.664Z,96938.59
2019-01-30T01:55:45.449Z,96944.39
2019-01-30T01:58:14.317Z,96933.72
2019-01-30T02:00:43.607Z,96933.80
2019-01-30T02:03:12.506Z,96922.19
2019-01-30T02:05:41.307Z,96926.23
2019-01-30T02:08:09.812Z,96920.25
2019-01-30T02:10:38.430Z,96919.88
2019-01-30T02:13:07.352Z,96912.22
2019-01-30T02:15:36.111Z,96908.44
2019-01-30T02:18:04.964Z,96900.63
2019-01-30T02:20:35.084Z,96890.75
2019-01-30T02:23:04.008Z,96890.55
2019-01-30T02:25:32.916Z,96886.25
2019-01-30T02:28:01.448Z,96879.61
2019-01-30T02:30:31.148Z,96881.73
2019-01-30T02:33:01.187Z,96871.30
2019-01-30T02:35:29.897Z,96876.84
2019-01-30T02:37:58.574Z,96876.28
2019-01-30T02:40:27.414Z,96877.57
2019-01-30T02:42:57.617Z,96872.41
2019-01-30T02:45:27.528Z,96860.33
2019-01-30T02:47:56.066Z,96864.41
2019-01-30T02:50:25.923Z,96860.80
2019-01-30T02:52:54.523Z,96848.93
2019-01-30T02:55:23.212Z,96845.68
2019-01-30T02:57:56.679Z,96843.19
2019-01-30T03:00:27.408Z,96837.41
2019-01-30T03:02:55.864Z,96841.06
2019-01-30T03:05:24.368Z,96837.77
2019-01-30T03:07:52.821Z,96834.00
2019-01-30T03:10:22.329Z,96827.25
2019-01-30T03:12:50.789Z,96828.34
2019-01-30T03:15:20.104Z,96814.72
2019-01-30T03:17:48.598Z,96816.30
2019-01-30T03:20:21.813Z,96812.62
2019-01-30T03:22:50.350Z,96805.70
2019-01-30T03:25:20.859Z,96805.34
2019-01-30T03:27:49.374Z,96797.58
2019-01-30T03:30:20.077Z,96793.08
2019-01-30T03:32:48.538Z,96789.68
2019-01-30T03:35:17.027Z,96788.09
2019-01-30T03:37:45.475Z,96784.98
2019-01-30T03:40:16.206Z,96780.36
2019-01-30T03:42:44.626Z,96773.30
2019-01-30T03:45:15.389Z,96765.81
2019-01-30T03:47:43.867Z,96767.12
2019-01-30T03:50:15.832Z,96764.16
2019-01-30T03:52:44.324Z,96763.25
2019-01-30T03:55:15.064Z,96758.45
2019-01-30T03:57:43.670Z,96754.75
2019-01-30T04:00:15.103Z,96751.73
2019-01-30T04:02:43.547Z,96749.13
2019-01-30T04:05:12.287Z,96748.78
2019-01-30T04:07:40.799Z,96740.58
2019-01-30T04:10:14.781Z,96739.30
2019-01-30T04:12:43.220Z,96737.36
2019-01-30T04:15:11.748Z,96736.36
2019-01-30T04:17:40.168Z,96737.28
2019-01-30T04:20:19.801Z,96730.55
2019-01-30T04:22:48.797Z,96727.80
2019-01-30T04:25:17.739Z,96727.59
2019-01-30T04:27:46.229Z,96726.50
2019-01-30T04:30:19.904Z,96723.36
2019-01-30T04:32:48.412Z,96724.02
2019-01-30T04:35:17.053Z,96715.34
2019-01-30T04:37:45.551Z,96713.41
2019-01-30T04:40:16.387Z,96712.30
2019-01-30T04:42:44.798Z,96705.88
2019-01-30T04:45:18.549Z,96715.44
2019-01-30T04:47:47.061Z,96714.80
2019-01-30T04:50:15.610Z,96703.92
2019-01-30T04:52:44.104Z,96697.38
2019-01-30T04:55:12.693Z,96697.69
2019-01-30T04:57:41.171Z,96692.98
2019-01-30T05:00:12.769Z,96697.73
2019-01-30T05:02:41.225Z,96692.88
2019-01-30T05:05:11.434Z,96689.06
2019-01-30T05:07:39.883Z,96689.34
2019-01-30T05:10:10.483Z,96692.02
2019-01-30T05:12:39.021Z,96697.73
2019-01-30T05:15:12.822Z,96699.38
2019-01-30T05:17:41.270Z,96691.73
2019-01-30T05:20:12.426Z,96678.18
2019-01-30T05:22:41.210Z,96687.84
2019-01-30T05:25:11.152Z,96682.05
2019-01-30T05:27:40.334Z,96680.38
2019-01-30T05:30:24.264Z,96676.95
2019-01-30T05:32:52.718Z,96671.89
2019-01-30T05:35:21.176Z,96674.84
2019-01-30T05:37:51.329Z,96679.63
2019-01-30T05:40:21.683Z,96676.57
2019-01-30T05:42:50.131Z,96666.06
2019-01-30T05:45:18.935Z,96666.31
2019-01-30T05:47:47.458Z,96665.12
2019-01-30T05:50:16.461Z,96662.91
2019-01-30T05:52:45.091Z,96659.86
2019-01-30T05:55:15.294Z,96658.41
2019-01-30T05:57:43.745Z,96654.70
2019-01-30T06:00:34.607Z,96653.78
2019-01-30T06:03:03.151Z,96649.63
2019-01-30T06:05:31.646Z,96649.89
2019-01-30T06:08:00.158Z,96644.79
2019-01-30T06:10:28.672Z,96643.75
2019-01-30T06:12:57.192Z,96641.60
2019-01-30T06:15:25.723Z,96643.66
2019-01-30T06:17:54.182Z,96633.61
2019-01-30T06:20:50.121Z,96643.23
2019-01-30T06:23:18.578Z,96638.88
2019-01-30T06:25:46.997Z,96638.83
2019-01-30T06:28:15.483Z,96638.77
2019-01-30T06:30:44.047Z,96630.27
2019-01-30T06:33:12.625Z,96632.56
2019-01-30T06:35:41.406Z,96620.14
2019-01-30T06:38:09.892Z,96632.86
2019-01-30T06:40:38.332Z,96626.35
2019-01-30T06:43:06.875Z,96625.02
2019-01-30T06:45:35.582Z,96619.14
2019-01-30T06:48:04.304Z,96620.33
2019-01-30T06:50:32.852Z,96618.75
2019-01-30T06:53:01.287Z,96620.86
2019-01-30T06:55:29.831Z,96622.09
2019-01-30T06:57:58.412Z,96626.59
2019-01-30T07:00:27.344Z,96622.33
2019-01-30T07:02:56.962Z,96625.45
2019-01-30T07:05:25.489Z,96627.11
2019-01-30T07:07:53.919Z,96621.19
2019-01-30T07:10:24.437Z,96628.56
2019-01-30T07:12:53.121Z,96623.92
2019-01-30T07:15:21.646Z,96624.44
2019-01-30T07:17:50.158Z,96626.59
2019-01-30T07:20:18.698Z,96627.02
2019-01-30T07:22:47.466Z,96629.32
2019-01-30T07:25:18.074Z,96634.20
2019-01-30T07:27:46.637Z,96628.94
2019-01-30T07:30:23.896Z,96636.58
2019-01-30T07:32:52.938Z,96629.17
2019-01-30T07:35:21.578Z,96634.80
2019-01-30T07:37:50.070Z,96633.61
2019-01-30T07:40:18.630Z,96631.56
2019-01-30T07:42:47.120Z,96629.55
2019-01-30T07:45:24.369Z,96633.95
2019-01-30T07:47:52.796Z,96632.05
2019-01-30T07:50:21.333Z,96629.17
2019-01-30T07:52:50.109Z,96634.90
2019-01-30T07:55:18.655Z,96641.41
2019-01-30T07:57:47.096Z,96636.67
2019-01-30T08:00:18.333Z,96638.73
2019-01-30T08:02:53.007Z,96648.95
2019-01-30T08:05:17.256Z,96642.78
2019-01-30T08:07:45.995Z,96643.84
2019-01-30T08:10:15.867Z,96644.12
2019-01-30T08:12:44.352Z,96643.31
2019-01-30T08:15:15.317Z,96642.30
2019-01-30T08:17:43.882Z,96645.80
2019-01-30T08:20:15.053Z,96652.88
2019-01-30T08:22:43.537Z,96647.84
2019-01-30T08:25:15.148Z,96654.59
2019-01-30T08:27:44.193Z,96655.07
2019-01-30T08:30:22.653Z,96660.76
2019-01-30T08:32:48.207Z,96657.41
2019-01-30T08:35:18.141Z,96653.41
2019-01-30T08:37:47.221Z,96661.61
2019-01-30T08:40:15.899Z,96667.02
2019-01-30T08:42:44.568Z,96665.55
2019-01-30T08:45:16.135Z,96666.00
2019-01-30T08:47:44.748Z,96676.91
2019-01-30T08:50:14.507Z,96672.91
2019-01-30T08:52:43.443Z,96671.79
2019-01-30T08:55:13.233Z,96680.63
2019-01-30T08:57:41.781Z,96677.27
2019-01-30T09:00:15.783Z,96670.30
2019-01-30T09:02:44.335Z,96678.49
2019-01-30T09:05:13.234Z,96680.01
2019-01-30T09:07:44.350Z,96685.44
2019-01-30T09:10:19.817Z,96691.45
2019-01-30T09:12:48.458Z,96692.02
2019-01-30T09:15:19.616Z,96698.91
2019-01-30T09:17:48.462Z,96699.97
2019-01-30T09:20:21.597Z,96700.14
2019-01-30T09:22:50.200Z,96710.16
2019-01-30T09:25:20.649Z,96707.87
2019-01-30T09:27:49.573Z,96713.30
2019-01-30T09:30:23.896Z,96716.68
2019-01-30T09:32:55.204Z,96711.67
2019-01-30T09:35:22.761Z,96714.81
2019-01-30T09:37:51.341Z,96716.05
2019-01-30T09:40:23.037Z,96720.30
2019-01-30T09:42:51.488Z,96724.52
2019-01-30T09:45:20.990Z,96724.08
2019-01-30T09:47:49.518Z,96723.78
2019-01-30T09:50:22.993Z,96730.56
2019-01-30T09:52:52.541Z,96730.47
2019-01-30T09:55:21.057Z,96735.98
2019-01-30T09:57:49.608Z,96743.81
2019-01-30T10:00:30.044Z,96740.36
2019-01-30T10:02:58.939Z,96749.66
2019-01-30T10:05:27.797Z,96752.89
2019-01-30T10:07:57.072Z,96754.89
2019-01-30T10:10:28.761Z,96753.84
2019-01-30T10:12:59.527Z,96759.20
2019-01-30T10:15:31.899Z,96759.74
2019-01-30T10:18:02.622Z,96768.18
2019-01-30T10:20:34.964Z,96772.56
2019-01-30T10:23:03.759Z,96741.86
2019-01-30T10:25:33.469Z,96775.21
2019-01-30T10:28:03.225Z,96770.95
2019-01-30T10:30:34.618Z,96782.97
2019-01-30T10:33:03.424Z,96785.59
2019-01-30T10:35:34.359Z,96789.09
2019-01-30T10:38:02.910Z,96785.45
2019-01-30T10:40:36.439Z,96798.08
2019-01-30T10:43:11.494Z,96797.13
2019-01-30T10:45:40.591Z,96807.30
2019-01-30T10:48:09.159Z,96804.03
2019-01-30T10:50:39.779Z,96818.33
2019-01-30T10:53:08.427Z,96813.83
2019-01-30T10:55:43.638Z,96816.69
2019-01-30T10:58:15.624Z,96822.59
2019-01-30T11:00:50.210Z,96826.12
2019-01-30T11:03:23.444Z,96833.05
2019-01-30T11:05:52.317Z,96851.73
2019-01-30T11:08:28.801Z,96846.95
2019-01-30T11:11:07.591Z,96849.73
2019-01-30T11:13:32.765Z,96856.66
2019-01-30T11:16:01.478Z,96865.21
2019-01-30T11:18:35.091Z,96863.55
2019-01-30T11:21:05.959Z,96864.68
2019-01-30T11:23:34.288Z,96882.55
2019-01-30T11:26:05.752Z,96881.45
2019-01-30T11:28:34.502Z,96897.39
2019-01-30T11:31:03.159Z,96891.77
2019-01-30T11:33:32.150Z,96901.35
2019-01-30T11:36:00.876Z,96906.69
2019-01-30T11:38:29.594Z,96909.83
2019-01-30T11:41:01.927Z,96913.31
2019-01-30T11:43:30.698Z,96916.28
2019-01-30T11:46:01.062Z,96927.23
2019-01-30T11:48:34.800Z,96941.61
2019-01-30T11:51:06.468Z,96939.88
2019-01-30T11:53:35.710Z,96940.88
2019-01-30T11:56:05.215Z,96949.00
2019-01-30T11:58:37.033Z,96953.30
2019-01-30T12:01:07.654Z,96964.19
2019-01-30T12:03:36.456Z,96958.11
2019-01-30T12:06:08.198Z,96969.47
2019-01-30T12:08:39.528Z,96975.01
2019-01-30T12:11:09.573Z,96978.54
2019-01-30T12:13:44.923Z,96994.33
2019-01-30T12:16:15.011Z,96994.50
2019-01-30T12:18:43.856Z,96989.80
2019-01-30T12:21:13.066Z,96999.74
2019-01-30T12:23:41.841Z,97007.48
2019-01-30T12:26:11.005Z,97010.69
2019-01-30T12:28:39.593Z,97015.84
2019-01-30T12:31:08.089Z,97022.95
2019-01-30T12:33:36.630Z,97030.47
2019-01-30T12:36:05.318Z,97024.50
2019-01-30T12:38:35.503Z,97036.68
2019-01-30T12:41:04.840Z,97043.59
2019-01-30T12:43:33.990Z,97053.44
2019-01-30T12:46:02.816Z,97049.58
2019-01-30T12:48:35.180Z,97057.30
2019-01-30T12:51:04.099Z,97069.48
2019-01-30T12:53:34.734Z,97062.08
2019-01-30T12:56:03.049Z,97066.50
2019-01-30T12:58:31.437Z,97078.05
2019-01-30T13:01:01.932Z,97081.26
2019-01-30T13:03:38.634Z,97084.77
2019-01-30T13:06:08.063Z,97091.86
2019-01-30T13:08:40.084Z,97103.27
2019-01-30T13:11:10.336Z,97101.65
2019-01-30T13:13:39.252Z,97097.29
2019-01-30T13:16:11.348Z,97096.63
2019-01-30T13:18:41.675Z,97107.22
2019-01-30T13:21:10.301Z,97108.89
2019-01-30T13:23:42.836Z,97118.47
2019-01-30T13:26:12.842Z,97123.72
2019-01-30T13:28:41.623Z,97134.20
2019-01-30T13:31:10.360Z,97135.16
2019-01-30T13:33:46.658Z,97142.09
2019-01-30T13:36:17.394Z,97152.64
2019-01-30T13:38:45.927Z,97154.56
2019-01-30T13:41:14.451Z,97155.38
2019-01-30T13:43:42.919Z,97177.92
2019-01-30T13:46:11.287Z,97167.34
2019-01-30T13:48:39.976Z,97175.34
2019-01-30T13:51:11.085Z,97173.86
2019-01-30T13:53:38.594Z,97176.71
2019-01-30T13:56:07.100Z,97189.53
2019-01-30T13:58:35.682Z,97194.25
2019-01-30T14:01:04.170Z,97197.08
2019-01-30T14:03:33.087Z,97194.85
2019-01-30T14:06:01.649Z,97216.19
2019-01-30T14:08:30.129Z,97214.59
2019-01-30T14:10:58.590Z,97231.55
2019-01-30T14:13:27.009Z,97219.20
2019-01-30T14:15:55.419Z,97224.36
2019-01-30T14:18:23.759Z,97220.41
2019-01-30T14:20:52.487Z,97246.95
2019-01-30T14:23:21.016Z,97252.89
2019-01-30T14:25:49.599Z,97250.16
2019-01-30T14:28:18.122Z,97252.66
2019-01-30T14:30:46.570Z,97265.48
2019-01-30T14:33:15.935Z,97260.41
2019-01-30T14:35:45.011Z,97269.35
2019-01-30T14:38:13.648Z,97278.77
2019-01-30T14:40:42.326Z,97271.70
2019-01-30T14:43:10.772Z,97280.27
2019-01-30T14:45:40.233Z,97297.66
2019-01-30T14:48:09.036Z,97292.03
2019-01-30T14:50:37.540Z,97293.55
2019-01-30T14:53:06.148Z,97294.69
2019-01-30T14:55:34.557Z,97302.03
2019-01-30T14:58:03.805Z,97310.60
2019-01-30T15:00:34.776Z,97307.59
2019-01-30T15:03:03.428Z,97310.60
2019-01-30T15:05:31.841Z,97314.94
2019-01-30T15:08:00.315Z,97322.14
2019-01-30T15:10:30.349Z,97321.78
2019-01-30T15:12:58.863Z,97328.59
2019-01-30T15:15:32.186Z,97330.66
2019-01-30T15:18:04.595Z,97343.76
2019-01-30T15:20:35.638Z,97341.34
2019-01-30T15:23:06.139Z,97346.50
2019-01-30T15:25:35.006Z,97357.52
2019-01-30T15:28:03.527Z,97354.86
2019-01-30T15:30:37.060Z,97351.30
2019-01-30T15:33:06.344Z,97362.80
2019-01-30T15:35:34.939Z,97362.37
2019-01-30T15:38:05.741Z,97377.70
2019-01-30T15:40:34.869Z,97367.61
2019-01-30T15:43:03.572Z,97361.08
2019-01-30T15:45:32.200Z,97380.28
2019-01-30T15:48:01.007Z,97382.94
2019-01-30T15:50:32.654Z,97361.33
2019-01-30T15:53:01.554Z,97397.07
2019-01-30T15:55:30.325Z,97398.21
2019-01-30T15:58:02.785Z,97408.14
2019-01-30T16:00:37.237Z,97412.18
2019-01-30T16:03:07.206Z,97400.27
2019-01-30T16:05:44.542Z,97410.79
2019-01-30T16:08:16.219Z,97398.21
2019-01-30T16:10:44.731Z,97419.89
2019-01-30T16:13:13.365Z,97416.05
2019-01-30T16:15:53.868Z,97421.55
2019-01-30T16:18:22.603Z,97431.81
2019-01-30T16:20:51.276Z,97428.83
2019-01-30T16:23:20.255Z,97442.67
2019-01-30T16:25:48.755Z,97429.69
2019-01-30T16:28:17.235Z,97443.47
2019-01-30T16:30:45.811Z,97427.95
2019-01-30T16:33:16.405Z,97444.81
2019-01-30T16:35:55.317Z,97451.11
2019-01-30T16:38:16.039Z,97448.22
2019-01-30T16:40:44.791Z,97464.09
2019-01-30T16:43:13.610Z,97447.47
2019-01-30T16:45:42.516Z,97448.45
2019-01-30T16:48:11.080Z,97471.98
2019-01-30T16:50:40.116Z,97472.52
2019-01-30T16:53:09.277Z,97476.24
2019-01-30T16:55:38.195Z,97492.64
2019-01-30T16:58:07.333Z,97479.58
2019-01-30T17:00:37.592Z,97481.84
2019-01-30T17:03:08.086Z,97480.86
2019-01-30T17:05:37.854Z,97490.05
2019-01-30T17:08:10.134Z,97492.56
2019-01-30T17:10:39.255Z,97503.98
2019-01-30T17:13:07.798Z,97500.39
2019-01-30T17:15:41.077Z,97494.60
2019-01-30T17:18:12.166Z,97505.01
2019-01-30T17:20:42.600Z,97508.37
2019-01-30T17:23:11.448Z,97512.62
2019-01-30T17:25:40.066Z,97510.58
2019-01-30T17:28:08.556Z,97516.13
2019-01-30T17:30:43.392Z,97525.32
2019-01-30T17:33:13.723Z,97521.31
2019-01-30T17:35:42.731Z,97532.00
2019-01-30T17:38:11.628Z,97522.72
2019-01-30T17:40:41.726Z,97529.81
2019-01-30T17:43:10.950Z,97528.74
2019-01-30T17:45:39.767Z,97536.34
2019-01-30T17:48:11.466Z,97537.92
2019-01-30T17:50:40.009Z,97538.76
2019-01-30T17:53:12.225Z,97537.40
2019-01-30T17:55:40.666Z,97546.36
2019-01-30T17:58:09.504Z,97544.24
2019-01-30T18:00:42.318Z,97526.25
2019-01-30T18:03:10.937Z,97541.05
2019-01-30T18:05:39.539Z,97549.41
2019-01-30T18:08:08.585Z,97545.22
2019-01-30T18:10:37.079Z,97549.09
2019-01-30T18:13:05.618Z,97551.20
2019-01-30T18:15:34.324Z,97559.05
2019-01-30T18:18:02.967Z,97557.30
2019-01-30T18:20:31.577Z,97555.40
2019-01-30T18:23:00.120Z,97558.80
2019-01-30T18:25:28.607Z,97555.08
2019-01-30T18:27:57.260Z,97558.15
2019-01-30T18:30:26.627Z,97561.12
2019-01-30T18:32:56.769Z,97563.84
2019-01-30T18:35:25.693Z,97569.89
2019-01-30T18:37:54.243Z,97567.38
2019-01-30T18:40:33.194Z,97572.73
2019-01-30T18:43:01.759Z,97573.55
2019-01-30T18:45:37.714Z,97571.45
2019-01-30T18:48:06.311Z,97568.44
2019-01-30T18:50:34.743Z,97574.92
2019-01-30T18:53:03.670Z,97568.78
2019-01-30T18:55:32.573Z,97573.69
2019-01-30T18:58:01.030Z,97574.16
2019-01-30T19:00:37.891Z,97579.48
2019-01-30T19:03:08.642Z,97573.61
2019-01-30T19:05:37.125Z,97571.63
2019-01-30T19:08:05.683Z,97573.31
2019-01-30T19:10:34.194Z,97567.63
2019-01-30T19:13:04.716Z,97566.87
2019-01-30T19:15:33.284Z,97566.46
2019-01-30T19:18:01.977Z,97564.60
2019-01-30T19:20:33.318Z,97563.52
2019-01-30T19:23:03.051Z,97566.30
2019-01-30T19:25:31.582Z,97561.60
2019-01-30T19:28:00.033Z,97561.60
2019-01-30T19:30:32.527Z,97565.17
2019-01-30T19:33:01.482Z,97577.42
2019-01-30T19:35:29.984Z,97567.19
2019-01-30T19:37:58.542Z,97567.19
2019-01-30T19:40:27.103Z,97560.61
2019-01-30T19:42:55.491Z,97570.48
2019-01-30T19:45:25.798Z,97571.34
2019-01-30T19:47:54.362Z,97572.05
2019-01-30T19:50:24.656Z,97572.23
2019-01-30T19:52:53.624Z,97573.91
2019-01-30T19:55:22.536Z,97571.75
2019-01-30T19:57:51.406Z,97576.36
2019-01-30T20:00:25.648Z,97575.36
2019-01-30T20:02:54.410Z,97577.05
2019-01-30T20:05:22.952Z,97573.41
2019-01-30T20:07:51.456Z,97570.20
2019-01-30T20:10:23.126Z,97568.25
2019-01-30T20:12:51.627Z,97571.99
2019-01-30T20:15:20.434Z,97572.78
2019-01-30T20:17:48.955Z,97570.70
2019-01-30T20:20:20.993Z,97565.79
2019-01-30T20:22:48.648Z,97569.53
2019-01-30T20:25:26.109Z,97576.13
2019-01-30T20:27:54.597Z,97579.19
2019-01-30T20:30:27.742Z,97579.20
2019-01-30T20:32:56.283Z,97575.47
2019-01-30T20:35:24.830Z,97574.42
2019-01-30T20:37:55.074Z,97570.63
2019-01-30T20:40:26.281Z,97585.79
2019-01-30T20:42:56.551Z,97579.88
2019-01-30T20:45:33.748Z,97586.26
2019-01-30T20:47:57.365Z,97585.97
2019-01-30T20:50:32.214Z,97581.03
2019-01-30T20:53:00.935Z,97582.77
2019-01-30T20:55:29.588Z,97585.89
2019-01-30T20:57:58.024Z,97584.95
2019-01-30T21:00:34.905Z,97588.69
2019-01-30T21:03:02.140Z,97587.08
2019-01-30T21:05:30.613Z,97588.22
2019-01-30T21:07:59.104Z,97578.16
2019-01-30T21:10:33.321Z,97574.81
2019-01-30T21:13:01.785Z,97575.94
2019-01-30T21:15:30.307Z,97569.58
2019-01-30T21:18:02.295Z,97569.84
2019-01-30T21:20:32.246Z,97565.58
2019-01-30T21:23:00.692Z,97561.31
2019-01-30T21:25:37.740Z,97550.82
2019-01-30T21:28:14.220Z,97558.92
2019-01-30T21:30:52.732Z,97557.56
2019-01-30T21:33:31.170Z,97551.45
2019-01-30T21:36:01.400Z,97558.92
2019-01-30T21:38:33.043Z,97560.58
2019-01-30T21:41:01.999Z,97569.48
2019-01-30T21:43:31.374Z,97559.55
2019-01-30T21:46:02.543Z,97553.22
2019-01-30T21:48:31.219Z,97548.56
2019-01-30T21:50:59.614Z,97542.23
2019-01-30T21:53:28.214Z,97542.73
2019-01-30T21:55:56.675Z,97550.36
2019-01-30T21:58:25.196Z,97546.97
2019-01-30T22:00:54.597Z,97548.87
2019-01-30T22:03:22.960Z,97546.95
2019-01-30T22:05:51.501Z,97545.34
2019-01-30T22:08:19.867Z,97546.22
2019-01-30T22:10:48.330Z,97545.88
2019-01-30T22:13:16.893Z,97545.14
2019-01-30T22:15:45.330Z,97535.84
2019-01-30T22:18:13.691Z,97538.72
2019-01-30T22:20:42.064Z,97543.38
2019-01-30T22:23:11.905Z,97528.66
2019-01-30T22:25:40.619Z,97533.70
2019-01-30T22:28:09.641Z,97545.00
2019-01-30T22:30:38.212Z,97537.20
2019-01-30T22:33:07.197Z,97526.75
2019-01-30T22:35:35.973Z,97526.17
2019-01-30T22:38:12.008Z,97529.07
2019-01-30T22:40:36.238Z,97523.91
2019-01-30T22:43:06.707Z,97528.73
2019-01-30T22:45:37.160Z,97522.47
2019-01-30T22:48:06.865Z,97523.36
2019-01-30T22:50:35.820Z,97525.89
2019-01-30T22:53:04.562Z,97520.25
2019-01-30T22:55:33.345Z,97523.05
2019-01-30T22:58:01.973Z,97516.94
2019-01-30T23:00:53.294Z,97519.73
2019-01-30T23:03:25.180Z,97508.27
2019-01-30T23:06:06.289Z,97505.47
2019-01-30T23:08:38.333Z,97506.30
2019-01-30T23:11:23.357Z,97498.27
2019-01-30T23:13:54.900Z,97504.38
2019-01-30T23:16:32.632Z,97500.17
2019-01-30T23:19:08.067Z,97499.63
2019-01-30T23:21:45.707Z,97492.30
2019-01-30T23:27:05.821Z,97492.30
2019-01-30T23:29:43.412Z,97483.02
2019-01-30T23:32:19.027Z,97478.08
2019-01-30T23:35:22.875Z,97480.51
2019-01-30T23:38:09.566Z,97475.53
2019-01-30T23:40:59.335Z,97467.26
2019-01-30T23:43:37.022Z,97462.78
2019-01-30T23:46:26.891Z,97462.17
2019-01-30T23:49:01.555Z,97464.00
2019-01-30T23:51:49.715Z,97459.30
2019-01-30T23:54:33.063Z,97451.03
2019-01-30T23:57:13.712Z,97446.02
2019-01-30T23:59:48.427Z,97439.25
